Time;durP1;ratioP1;P1;durP2;ratioP2;P2;SDS_P1;SDS_P2;PMS_P1;PMS_P2;Temp;Humidity;BMP_temperature;BMP_pressure;BME280_temperature;BME280_humidity;BME280_pressure;Samples;Min_cycle;Max_cycle;Signal;HPM_P1;HPM_P2
2022/02/08 00:02:01;;;;;;;5.07;1.50;;;2.30;99.90;;;;;;5013781;28;20167;-70
2022/02/08 00:04:30;;;;;;;1.33;1.23;;;2.40;99.90;;;;;;5013906;28;20210;-70
2022/02/08 00:06:56;;;;;;;1.15;1.05;;;2.40;99.90;;;;;;5013760;28;20198;-70
2022/02/08 00:09:24;;;;;;;0.85;0.85;;;2.50;99.90;;;;;;5013298;28;20619;-70
2022/02/08 00:11:49;;;;;;;1.70;1.60;;;2.50;99.90;;;;;;5013097;28;20578;-70
2022/02/08 00:14:15;;;;;;;1.60;1.50;;;2.50;99.90;;;;;;5015350;28;20174;-70
2022/02/08 00:16:41;;;;;;;2.93;1.03;;;2.60;99.90;;;;;;5013991;28;20249;-70
2022/02/08 00:19:07;;;;;;;1.63;1.13;;;2.60;99.90;;;;;;5013204;28;20198;-70
2022/02/08 00:21:32;;;;;;;1.37;0.97;;;2.70;99.90;;;;;;5013854;28;20264;-70
2022/02/08 00:23:58;;;;;;;1.53;1.03;;;2.70;99.90;;;;;;5013473;28;20446;-70
2022/02/08 00:26:24;;;;;;;1.20;1.10;;;2.70;99.90;;;;;;5013684;28;20197;-70
2022/02/08 00:28:50;;;;;;;4.60;1.53;;;2.80;99.90;;;;;;5012971;28;20417;-70
2022/02/08 00:31:17;;;;;;;1.17;1.17;;;2.80;99.90;;;;;;5013606;28;20402;-70
2022/02/08 00:33:42;;;;;;;5.13;1.50;;;2.70;99.90;;;;;;5013421;28;20220;-70
2022/02/08 00:36:08;;;;;;;1.30;1.30;;;2.70;99.90;;;;;;5013611;28;20183;-70
2022/02/08 00:38:35;;;;;;;3.43;1.23;;;2.70;99.90;;;;;;5013027;28;20163;-71
2022/02/08 00:41:02;;;;;;;0.65;0.63;;;2.80;99.90;;;;;;5013427;28;20217;-71
2022/02/08 00:43:37;;;;;;;0.95;0.95;;;2.80;99.90;;;;;;5013311;28;20565;-70
2022/02/08 00:46:12;;;;;;;1.30;1.20;;;2.90;99.90;;;;;;5011953;28;20254;-70
2022/02/08 00:48:43;;;;;;;1.30;1.27;;;3.00;99.90;;;;;;5012855;28;20653;-70
2022/02/08 00:51:11;;;;;;;4.35;1.90;;;3.10;99.90;;;;;;5013194;28;20173;-70
2022/02/08 00:53:37;;;;;;;3.78;1.25;;;3.10;99.90;;;;;;5013348;28;20225;-70
2022/02/08 00:56:03;;;;;;;10.33;1.67;;;3.20;99.90;;;;;;5011914;28;20249;-70
2022/02/08 00:58:29;;;;;;;3.70;1.45;;;3.20;99.90;;;;;;5017878;28;20912;-70
2022/02/08 01:00:54;;;;;;;1.40;1.30;;;3.30;99.90;;;;;;5016799;28;20190;-70
2022/02/08 01:03:21;;;;;;;1.60;1.20;;;3.30;99.90;;;;;;5016012;28;20202;-69
2022/02/08 01:05:52;;;;;;;1.55;1.45;;;3.30;99.90;;;;;;5013281;28;20216;-70
2022/02/08 01:08:19;;;;;;;1.25;1.05;;;3.30;99.90;;;;;;5015305;28;20166;-70
2022/02/08 01:10:44;;;;;;;2.90;1.85;;;3.20;99.90;;;;;;5016760;28;20178;-70
2022/02/08 01:13:10;;;;;;;8.13;1.30;;;3.20;99.90;;;;;;5014085;28;20205;-70
2022/02/08 01:15:37;;;;;;;1.20;1.20;;;3.10;99.90;;;;;;5014967;28;20167;-70
2022/02/08 01:18:04;;;;;;;9.60;1.40;;;3.10;99.90;;;;;;5013432;28;20606;-70
2022/02/08 01:20:32;;;;;;;1.30;1.30;;;3.10;99.90;;;;;;5012980;28;20565;-70
2022/02/08 01:23:03;;;;;;;1.85;1.70;;;3.10;99.90;;;;;;5018012;28;20198;-70
2022/02/08 01:25:33;;;;;;;4.78;1.23;;;3.10;99.90;;;;;;5017358;28;20250;-70
2022/02/08 01:28:09;;;;;;;5.13;1.83;;;3.10;99.90;;;;;;5016382;28;20588;-70
2022/02/08 01:30:58;;;;;;;1.10;0.95;;;3.10;99.90;;;;;;5032049;28;20263;-70
2022/02/08 01:38:42;;;;;;;1.55;1.45;;;3.00;99.90;;;;;;5016425;28;20209;-71
2022/02/08 01:41:30;;;;;;;1.20;1.20;;;2.90;99.90;;;;;;5016277;28;20586;-69
2022/02/08 01:44:17;;;;;;;1.10;1.10;;;2.90;99.90;;;;;;5016416;28;20205;-70
2022/02/08 01:46:56;;;;;;;1.85;1.15;;;2.90;99.90;;;;;;5016453;28;20174;-69
2022/02/08 01:51:53;;;;;;;3.03;1.58;;;2.70;99.90;;;;;;5016115;28;20182;-70
2022/02/08 01:54:18;;;;;;;2.80;1.75;;;2.70;99.90;;;;;;5016338;28;20209;-69
2022/02/08 01:56:45;;;;;;;1.33;1.23;;;2.70;99.90;;;;;;5014915;28;20665;-70
2022/02/08 01:59:12;;;;;;;1.00;1.00;;;2.70;99.90;;;;;;5015851;28;20269;-69
2022/02/08 02:01:37;;;;;;;1.48;1.38;;;2.70;99.90;;;;;;5016044;28;20175;-70
2022/02/08 02:04:03;;;;;;;1.53;0.87;;;2.70;99.90;;;;;;5014797;28;20253;-70
2022/02/08 02:06:29;;;;;;;1.27;1.13;;;2.70;99.90;;;;;;5016111;28;20521;-69
2022/02/08 02:08:55;;;;;;;0.80;0.53;;;2.80;99.90;;;;;;5015524;28;20421;-69
2022/02/08 02:11:20;;;;;;;1.53;1.43;;;2.90;99.90;;;;;;5014501;28;20493;-71
2022/02/08 02:13:49;;;;;;;1.47;1.40;;;2.90;99.90;;;;;;5014417;28;20252;-70
2022/02/08 02:16:20;;;;;;;1.42;1.40;;;3.00;99.90;;;;;;5016193;28;20167;-71
2022/02/08 02:18:46;;;;;;;1.17;1.17;;;3.10;99.90;;;;;;5015311;28;20171;-70
2022/02/08 02:21:14;;;;;;;2.17;1.20;;;3.10;99.90;;;;;;5015584;28;20177;-69
2022/02/08 02:23:39;;;;;;;0.90;0.90;;;3.30;99.90;;;;;;5015917;28;20439;-69
2022/02/08 02:26:05;;;;;;;2.07;1.17;;;3.20;99.90;;;;;;5015713;28;20175;-69
2022/02/08 02:28:33;;;;;;;0.83;0.83;;;3.20;99.90;;;;;;5015282;28;20249;-70
2022/02/08 02:30:58;;;;;;;3.35;1.10;;;3.30;99.90;;;;;;5015730;28;20556;-70
2022/02/08 02:33:24;;;;;;;1.97;1.17;;;3.30;99.90;;;;;;5015219;28;20174;-70
2022/02/08 02:35:50;;;;;;;1.37;1.13;;;3.30;99.90;;;;;;5015382;28;20181;-70
2022/02/08 02:38:15;;;;;;;1.73;1.53;;;3.40;99.90;;;;;;5015204;28;20183;-69
2022/02/08 02:40:44;;;;;;;5.20;1.03;;;3.40;99.90;;;;;;5015148;28;20429;-70
2022/02/08 02:43:10;;;;;;;2.10;2.00;;;3.50;99.90;;;;;;5015252;28;20198;-69
2022/02/08 02:45:36;;;;;;;6.85;1.13;;;3.60;99.90;;;;;;5015422;28;20174;-69
2022/02/08 02:48:02;;;;;;;0.90;0.90;;;3.60;99.90;;;;;;5015049;28;20167;-68
2022/02/08 02:50:27;;;;;;;1.13;1.13;;;3.70;99.90;;;;;;5014946;28;20676;-69
2022/02/08 02:52:53;;;;;;;1.00;1.00;;;3.70;99.90;;;;;;5015173;28;20637;-70
2022/02/08 02:55:19;;;;;;;4.60;2.47;;;3.70;99.90;;;;;;5015268;28;20171;-69
2022/02/08 02:57:49;;;;;;;2.38;0.77;;;3.80;99.90;;;;;;5014636;28;20170;-70
2022/02/08 03:00:31;;;;;;;2.17;1.00;;;3.80;99.90;;;;;;5015160;28;20545;-71
2022/02/08 03:03:09;;;;;;;1.48;1.25;;;3.90;99.90;;;;;;5014998;28;20175;-70
2022/02/08 03:19:03;;;;;;;4.32;1.67;;;4.00;99.90;;;;;;5014283;28;20244;-70
2022/02/08 03:21:29;;;;;;;0.90;0.90;;;4.10;99.90;;;;;;5014494;28;20577;-69
2022/02/08 03:23:54;;;;;;;2.00;0.97;;;4.10;99.90;;;;;;5014329;28;20195;-69
2022/02/08 03:26:20;;;;;;;1.00;1.00;;;4.10;99.90;;;;;;5014823;28;20181;-69
2022/02/08 03:28:46;;;;;;;9.07;0.90;;;4.10;99.90;;;;;;5013953;28;20175;-69
2022/02/08 03:31:11;;;;;;;0.40;0.40;;;4.10;99.90;;;;;;5014263;28;20177;-69
2022/02/08 03:33:37;;;;;;;1.63;1.40;;;4.10;99.90;;;;;;5014400;28;20178;-69
2022/02/08 03:36:03;;;;;;;0.83;0.83;;;4.20;99.90;;;;;;5014173;28;20171;-69
2022/02/08 03:38:34;;;;;;;0.98;0.93;;;4.20;99.90;;;;;;5014031;28;20174;-69
2022/02/08 03:41:02;;;;;;;0.50;0.50;;;4.20;99.90;;;;;;5014235;28;20175;-70
2022/02/08 03:43:30;;;;;;;0.80;0.80;;;4.30;99.90;;;;;;5014180;28;20183;-69
2022/02/08 03:45:59;;;;;;;3.35;1.85;;;4.30;99.90;;;;;;5013372;28;20181;-70
2022/02/08 03:48:28;;;;;;;0.55;0.55;;;4.30;99.90;;;;;;5014028;28;20272;-69
2022/02/08 03:51:07;;;;;;;1.67;1.10;;;4.30;99.90;;;;;;5014693;28;20183;-70
2022/02/08 03:53:33;;;;;;;1.13;0.75;;;4.30;99.90;;;;;;5014334;28;20181;-69
2022/02/08 03:55:58;;;;;;;0.90;0.90;;;4.30;99.90;;;;;;5014412;28;20167;-69
2022/02/08 03:58:24;;;;;;;1.27;0.80;;;4.20;99.90;;;;;;5014217;28;20170;-69
2022/02/08 04:03:15;;;;;;;1.13;0.73;;;4.20;99.90;;;;;;5013993;28;20209;-70
2022/02/08 04:05:44;;;;;;;0.83;0.83;;;4.10;99.90;;;;;;5012596;28;20757;-69
2022/02/08 04:08:13;;;;;;;0.68;0.68;;;4.10;99.90;;;;;;5013666;28;20406;-70
2022/02/08 04:10:40;;;;;;;3.97;1.58;;;4.10;99.90;;;;;;5013726;28;20249;-70
2022/02/08 04:13:14;;;;;;;1.73;0.60;;;4.10;99.90;;;;;;5013710;28;20167;-69
2022/02/08 04:35:21;;;;;;;3.42;2.35;;;4.30;99.90;;;;;;5013389;28;20174;-70
2022/02/08 04:40:28;;;;;;;1.23;0.90;;;4.40;99.90;;;;;;5013479;28;20210;-71
2022/02/08 04:43:19;;;;;;;2.20;0.75;;;4.40;99.90;;;;;;5013383;28;20396;-70
2022/02/08 04:48:53;;;;;;;0.90;0.90;;;4.40;99.90;;;;;;5002199;28;20191;-70
2022/02/08 04:51:23;;;;;;;1.85;0.90;;;4.40;99.90;;;;;;5013059;28;20261;-70
2022/02/08 04:53:57;;;;;;;1.00;1.00;;;4.40;99.90;;;;;;5013622;28;20309;-70
2022/02/08 05:45:00;;;;;;;2.00;0.70;;;4.40;99.90;;;;;;5016293;28;20616;-69
2022/02/08 05:47:26;;;;;;;2.42;1.20;;;4.50;99.90;;;;;;5016359;28;20179;-69
2022/02/08 05:50:10;;;;;;;1.80;1.02;;;4.50;99.90;;;;;;5015625;28;20190;-70
2022/02/08 05:52:49;;;;;;;1.67;1.20;;;4.60;99.90;;;;;;5015868;28;20179;-70
2022/02/08 05:55:15;;;;;;;10.35;1.10;;;4.60;99.90;;;;;;5016114;28;20178;-71
2022/02/08 05:57:41;;;;;;;2.45;0.90;;;4.60;99.90;;;;;;5015748;28;20221;-68
2022/02/08 06:00:09;;;;;;;1.15;0.80;;;4.70;99.90;;;;;;5015632;28;20214;-71
2022/02/08 06:02:35;;;;;;;4.63;1.63;;;4.70;99.90;;;;;;5016072;28;20182;-70
2022/02/08 06:05:01;;;;;;;0.73;0.63;;;4.70;99.90;;;;;;5015827;28;20203;-71
2022/02/08 06:07:26;;;;;;;2.90;1.23;;;4.70;99.90;;;;;;5014614;28;20206;-69
2022/02/08 06:09:55;;;;;;;1.70;1.57;;;4.70;99.90;;;;;;5014246;28;20187;-69
2022/02/08 06:12:25;;;;;;;1.23;1.05;;;4.70;99.90;;;;;;5015482;28;20169;-69
2022/02/08 06:14:57;;;;;;;10.13;1.13;;;4.70;99.90;;;;;;5015606;28;20173;-70
2022/02/08 06:17:24;;;;;;;1.40;1.30;;;4.70;99.90;;;;;;5015504;28;20180;-70
2022/02/08 06:19:50;;;;;;;0.75;0.75;;;4.70;99.90;;;;;;5015128;28;20203;-70
2022/02/08 06:22:16;;;;;;;1.40;0.88;;;4.70;99.90;;;;;;5015411;28;20545;-70
2022/02/08 06:24:42;;;;;;;1.63;0.80;;;4.70;99.90;;;;;;5015441;28;20242;-70
2022/02/08 06:27:09;;;;;;;1.33;1.23;;;4.70;99.90;;;;;;5015232;28;20198;-70
2022/02/08 06:29:35;;;;;;;1.08;1.05;;;4.70;99.90;;;;;;5015055;28;20780;-70
2022/02/08 06:32:00;;;;;;;1.00;1.00;;;4.70;99.90;;;;;;5015496;28;20171;-70
2022/02/08 06:34:30;;;;;;;0.77;0.77;;;4.80;99.90;;;;;;5015461;28;20410;-69
2022/02/08 06:37:02;;;;;;;1.02;1.02;;;4.80;99.90;;;;;;5013577;28;20183;-71
2022/02/08 06:39:33;;;;;;;0.63;0.63;;;4.80;99.90;;;;;;5014481;28;20187;-70
2022/02/08 06:41:59;;;;;;;1.95;1.17;;;4.80;99.90;;;;;;5015312;28;20216;-70
2022/02/08 06:44:24;;;;;;;3.63;1.30;;;4.80;99.90;;;;;;5014800;28;20208;-70
2022/02/08 06:46:50;;;;;;;1.30;1.30;;;4.80;99.90;;;;;;5014688;28;20174;-70
2022/02/08 06:49:17;;;;;;;1.43;1.07;;;4.80;99.90;;;;;;5012652;28;20187;-70
2022/02/08 06:51:43;;;;;;;1.15;0.77;;;4.80;99.90;;;;;;5014788;28;20174;-70
2022/02/08 06:54:09;;;;;;;2.63;2.00;;;4.80;99.90;;;;;;5014723;28;20242;-70
2022/02/08 06:56:35;;;;;;;2.30;1.30;;;4.80;99.90;;;;;;5015082;28;20422;-70
2022/02/08 06:59:08;;;;;;;0.60;0.60;;;4.80;99.90;;;;;;5014272;28;20248;-70
2022/02/08 07:01:36;;;;;;;0.82;0.82;;;4.90;99.90;;;;;;5014666;28;20176;-70
2022/02/08 07:04:05;;;;;;;1.05;0.63;;;4.90;99.90;;;;;;5014915;28;20198;-71
2022/02/08 07:06:30;;;;;;;1.80;0.70;;;4.90;99.90;;;;;;5014728;28;20164;-74
2022/02/08 07:08:56;;;;;;;1.67;1.50;;;5.00;99.90;;;;;;5014195;28;20196;-74
2022/02/08 07:11:22;;;;;;;1.30;0.80;;;5.00;99.90;;;;;;5014914;28;20202;-74
2022/02/08 07:13:49;;;;;;;4.25;1.95;;;5.00;99.90;;;;;;5014456;28;20182;-75
2022/02/08 07:16:15;;;;;;;2.45;1.00;;;5.10;99.90;;;;;;5014546;28;20183;-75
2022/02/08 07:18:41;;;;;;;2.28;1.15;;;5.10;99.90;;;;;;5013809;28;20190;-74
2022/02/08 07:21:08;;;;;;;1.83;1.20;;;5.20;99.90;;;;;;5014325;28;20177;-75
2022/02/08 07:23:35;;;;;;;1.35;1.25;;;5.20;99.90;;;;;;5009316;28;20509;-75
2022/02/08 07:26:01;;;;;;;1.60;1.50;;;5.30;99.90;;;;;;4994121;28;20175;-74
2022/02/08 07:28:27;;;;;;;3.17;1.60;;;5.30;99.90;;;;;;4994794;28;20179;-74
2022/02/08 07:31:02;;;;;;;1.85;0.90;;;5.40;99.90;;;;;;4994639;28;20497;-74
2022/02/08 07:33:28;;;;;;;3.05;0.85;;;5.40;99.90;;;;;;4994273;28;20181;-73
2022/02/08 07:36:10;;;;;;;2.20;2.10;;;5.50;99.90;;;;;;4994494;28;20182;-73
2022/02/08 07:38:39;;;;;;;0.85;0.85;;;5.50;99.90;;;;;;4994305;28;20169;-75
2022/02/08 07:53:30;;;;;;;1.48;1.38;;;5.70;99.90;;;;;;5020906;28;20217;-75
2022/02/08 08:02:40;;;;;;;2.00;0.95;;;6.00;99.90;;;;;;5024618;28;20221;-79
2022/02/08 08:05:07;;;;;;;4.10;1.83;;;6.20;99.90;;;;;;5015497;28;20210;-77
2022/02/08 08:07:34;;;;;;;3.92;1.75;;;6.20;99.90;;;;;;5071696;28;20427;-77
2022/02/08 08:10:01;;;;;;;1.70;1.60;;;6.30;99.90;;;;;;5053712;28;20265;-75
2022/02/08 08:12:28;;;;;;;3.10;1.25;;;6.30;99.90;;;;;;5033679;28;20238;-77
2022/02/08 08:14:56;;;;;;;2.10;1.98;;;6.30;99.90;;;;;;4969690;28;20194;-76
2022/02/08 08:19:50;;;;;;;4.07;1.13;;;6.50;99.90;;;;;;4735414;29;20225;-75
2022/02/08 08:22:19;;;;;;;1.60;1.50;;;6.50;99.90;;;;;;4428139;30;52898;-75
2022/02/08 08:24:46;;;;;;;1.43;0.80;;;6.60;99.90;;;;;;4198105;33;49764;-75
2022/02/08 08:27:13;;;;;;;1.27;1.17;;;6.60;99.90;;;;;;4109791;34;20560;-75
2022/02/08 08:29:39;;;;;;;1.00;0.95;;;6.70;99.90;;;;;;4097078;35;20233;-75
2022/02/08 08:32:05;;;;;;;1.10;0.97;;;6.70;99.90;;;;;;4099325;35;20216;-77
2022/02/08 08:34:32;;;;;;;1.60;1.10;;;6.60;99.90;;;;;;4101954;35;20296;-76
2022/02/08 08:36:58;;;;;;;1.35;1.25;;;6.60;99.90;;;;;;4102112;35;20216;-76
2022/02/08 08:39:29;;;;;;;3.70;2.67;;;6.70;99.90;;;;;;4101519;34;20273;-74
2022/02/08 08:52:41;;;;;;;1.25;1.20;;;7.20;99.90;;;;;;4101893;34;20212;-73
2022/02/08 08:55:07;;;;;;;5.45;1.70;;;7.20;99.90;;;;;;4092990;35;20768;-74
2022/02/08 08:57:32;;;;;;;1.90;1.23;;;7.20;99.90;;;;;;4088680;35;20256;-74
2022/02/08 08:59:58;;;;;;;2.33;1.33;;;7.30;99.90;;;;;;4088447;35;20261;-73
2022/02/08 09:02:24;;;;;;;0.70;0.67;;;7.60;99.90;;;;;;4088656;35;20281;-74
2022/02/08 09:04:51;;;;;;;1.63;0.80;;;8.00;99.90;;;;;;4088488;35;20221;-73
2022/02/08 09:07:18;;;;;;;2.78;2.58;;;8.50;99.90;;;;;;4088587;35;20238;-72
2022/02/08 09:09:46;;;;;;;3.88;2.58;;;9.00;99.90;;;;;;4088084;35;20237;-75
2022/02/08 09:12:52;;;;;;;1.20;1.20;;;9.50;99.90;;;;;;4088559;35;20236;-73
2022/02/08 09:18:09;;;;;;;3.23;2.20;;;11.10;99.90;;;;;;4088379;35;20457;-74
2022/02/08 09:28:20;;;;;;;4.90;1.17;;;12.00;96.00;;;;;;4412900;32;20450;-74
2022/02/08 09:30:56;;;;;;;3.07;1.60;;;11.90;95.50;;;;;;4413191;32;20422;-75
2022/02/08 09:33:22;;;;;;;6.97;1.93;;;11.70;95.40;;;;;;4413349;32;20399;-74
2022/02/08 09:35:49;;;;;;;1.50;1.20;;;12.00;95.60;;;;;;4413041;32;20448;-75
2022/02/08 09:38:16;;;;;;;1.20;1.20;;;12.70;95.90;;;;;;4412570;32;20204;-75
2022/02/08 09:40:41;;;;;;;0.70;0.70;;;13.50;94.00;;;;;;4411859;32;20511;-75
2022/02/08 09:43:11;;;;;;;2.53;1.50;;;13.80;92.60;;;;;;4412544;32;20503;-76
2022/02/08 09:45:36;;;;;;;4.87;1.40;;;14.00;92.80;;;;;;4411044;32;20465;-74
2022/02/08 09:48:11;;;;;;;1.13;1.03;;;14.40;92.10;;;;;;4410286;32;20484;-75
2022/02/08 09:50:38;;;;;;;1.10;0.83;;;14.70;91.90;;;;;;4410689;32;20521;-75
2022/02/08 09:53:08;;;;;;;2.50;1.00;;;14.80;92.00;;;;;;4410405;32;20434;-75
2022/02/08 09:55:38;;;;;;;1.93;1.10;;;15.20;91.80;;;;;;4424821;32;20447;-74
2022/02/08 09:58:05;;;;;;;2.00;1.50;;;15.80;91.30;;;;;;4425461;32;20435;-75
2022/02/08 10:00:33;;;;;;;3.20;1.10;;;16.50;91.40;;;;;;4425447;32;20449;-76
2022/02/08 10:03:17;;;;;;;1.53;0.80;;;17.20;90.10;;;;;;4425679;32;20422;-75
2022/02/08 10:05:45;;;;;;;1.13;1.07;;;17.50;86.30;;;;;;4425461;32;20448;-75
2022/02/08 10:08:12;;;;;;;1.60;1.50;;;17.50;85.30;;;;;;4425178;32;20409;-75
2022/02/08 10:10:38;;;;;;;5.40;1.30;;;17.70;87.10;;;;;;4424364;32;20444;-76
2022/02/08 10:23:55;;;;;;;2.30;1.17;;;18.70;83.30;;;;;;4581623;31;20999;-76
2022/02/08 10:26:33;;;;;;;1.47;0.87;;;19.10;82.70;;;;;;4660559;30;20531;-76
2022/02/08 10:29:05;;;;;;;1.07;0.90;;;18.70;79.10;;;;;;4667375;30;20439;-76
2022/02/08 10:40:12;;;;;;;0.60;0.60;;;16.20;83.80;;;;;;4667260;30;20461;-76
2022/02/08 10:42:41;;;;;;;3.23;1.70;;;15.40;85.80;;;;;;4652173;30;20438;-73
2022/02/08 10:45:18;;;;;;;1.00;0.90;;;15.10;88.50;;;;;;4667184;30;21049;-74
2022/02/08 10:47:48;;;;;;;0.93;0.80;;;15.20;86.90;;;;;;4666959;30;20422;-74
2022/02/08 10:50:15;;;;;;;1.40;0.90;;;15.30;88.00;;;;;;4667269;30;20470;-75
2022/02/08 10:52:43;;;;;;;1.57;1.47;;;15.10;87.50;;;;;;4667330;30;20420;-74
2022/02/08 10:55:28;;;;;;;1.00;0.60;;;14.70;88.60;;;;;;4653317;30;20763;-72
2022/02/08 11:00:27;;;;;;;1.17;0.60;;;14.60;91.00;;;;;;4649977;30;20440;-75
2022/02/08 11:02:55;;;;;;;1.40;1.17;;;14.60;91.00;;;;;;4650080;30;20528;-75
2022/02/08 11:05:36;;;;;;;2.80;1.40;;;14.80;90.70;;;;;;4650086;30;20520;-74
2022/02/08 11:10:50;;;;;;;1.80;1.03;;;15.70;91.20;;;;;;4649905;30;20761;-73
2022/02/08 11:15:51;;;;;;;0.87;0.80;;;16.70;88.50;;;;;;4650037;30;20420;-73
2022/02/08 11:18:30;;;;;;;1.87;0.70;;;17.00;87.90;;;;;;4649352;30;20416;-73
2022/02/08 11:21:23;;;;;;;2.47;1.03;;;17.20;86.60;;;;;;4691552;30;20525;-73
2022/02/08 11:26:36;;;;;;;2.07;1.63;;;16.30;86.00;;;;;;4899039;29;20431;-73
2022/02/08 11:29:21;;;;;;;0.93;0.67;;;15.80;86.10;;;;;;4881935;29;20205;-74
2022/02/08 11:32:13;;;;;;;1.20;1.03;;;15.30;85.70;;;;;;4899085;29;20714;-74
2022/02/08 11:43:37;;;;;;;1.60;1.03;;;13.90;91.00;;;;;;4898717;29;20419;-73
2022/02/08 11:46:22;;;;;;;0.60;0.60;;;13.70;91.70;;;;;;4898834;29;20756;-74
2022/02/08 11:51:40;;;;;;;1.33;0.77;;;13.30;92.30;;;;;;4898508;29;20781;-74
2022/02/08 12:09:32;;;;;;;2.80;0.90;;;12.90;95.70;;;;;;4916909;29;20438;-72
2022/02/08 12:51:03;;;;;;;2.10;0.77;;;12.60;99.40;;;;;;4916833;29;20500;-72
2022/02/08 12:55:51;;;;;;;0.60;0.50;;;12.80;99.30;;;;;;4917072;29;20530;-73
2022/02/08 12:58:45;;;;;;;2.73;0.63;;;12.80;99.30;;;;;;4916228;29;20408;-73
2022/02/08 13:19:51;;;;;;;1.23;1.03;;;12.90;99.30;;;;;;4915220;29;20497;-74
2022/02/08 14:16:15;;;;;;;0.70;0.53;;;11.60;99.90;;;;;;4938478;29;20879;-73
2022/02/08 14:21:12;;;;;;;0.70;0.70;;;11.60;99.90;;;;;;4949524;28;20904;-73
2022/02/08 15:08:48;;;;;;;1.58;0.90;;;10.90;99.90;;;;;;4975327;28;20188;-75
2022/02/08 15:11:14;;;;;;;0.60;0.60;;;10.90;99.90;;;;;;4976033;28;20583;-74
2022/02/08 15:13:45;;;;;;;0.97;0.70;;;10.90;99.90;;;;;;4975781;28;20169;-74
2022/02/08 15:16:23;;;;;;;1.52;1.50;;;10.80;99.90;;;;;;4976007;28;20528;-75
2022/02/08 15:18:50;;;;;;;3.13;1.23;;;10.80;99.90;;;;;;4975630;28;20184;-75
2022/02/08 15:21:26;;;;;;;1.35;0.95;;;10.80;99.90;;;;;;4988878;28;20202;-74
2022/02/08 15:23:53;;;;;;;1.38;0.60;;;10.70;99.90;;;;;;4995871;28;20222;-74
2022/02/08 15:26:19;;;;;;;0.55;0.50;;;10.70;99.90;;;;;;4995434;28;20558;-73
2022/02/08 15:28:45;;;;;;;1.42;0.80;;;10.60;99.90;;;;;;4995586;28;20554;-73
2022/02/08 15:31:11;;;;;;;0.43;0.43;;;10.60;99.90;;;;;;4995725;28;20574;-73
2022/02/08 15:33:37;;;;;;;3.65;0.70;;;10.60;99.90;;;;;;4995645;28;20168;-73
2022/02/08 15:36:03;;;;;;;1.02;0.93;;;10.50;99.90;;;;;;4995739;28;20648;-73
2022/02/08 15:38:32;;;;;;;2.63;0.87;;;10.50;99.90;;;;;;4995066;28;20171;-74
2022/02/08 15:40:59;;;;;;;2.28;0.77;;;10.40;99.90;;;;;;4994861;28;20439;-74
2022/02/08 15:43:26;;;;;;;0.68;0.68;;;10.40;99.90;;;;;;4994642;28;20164;-74
2022/02/08 15:46:00;;;;;;;0.70;0.70;;;10.50;99.90;;;;;;4994590;28;20768;-74
2022/02/08 15:48:26;;;;;;;1.70;1.10;;;10.40;99.90;;;;;;4994258;28;20166;-74
2022/02/08 15:51:15;;;;;;;0.70;0.70;;;10.40;99.90;;;;;;4995115;28;20167;-73
2022/02/08 15:53:58;;;;;;;0.57;0.57;;;10.40;99.90;;;;;;4994049;28;20415;-73
2022/02/08 15:56:33;;;;;;;2.97;1.10;;;10.40;99.90;;;;;;4994170;28;20167;-70
2022/02/08 16:33:37;;;;;;;4.45;1.10;;;9.50;99.90;;;;;;4974444;28;20212;-70
2022/02/08 16:47:41;;;;;;;1.88;0.98;;;9.40;99.90;;;;;;4974496;28;20221;-70
2022/02/08 16:52:52;;;;;;;0.70;0.70;;;9.40;99.90;;;;;;4955508;28;20230;-68
2022/02/08 16:55:47;;;;;;;1.67;0.85;;;9.40;99.90;;;;;;4978250;28;20258;-69
2022/02/08 17:01:01;;;;;;;1.15;1.05;;;9.40;99.90;;;;;;4978737;28;20194;-70
2022/02/08 17:03:30;;;;;;;2.25;1.00;;;9.40;99.90;;;;;;4978102;28;20284;-70
2022/02/08 17:05:56;;;;;;;0.50;0.50;;;9.40;99.90;;;;;;4977768;28;20264;-70
2022/02/08 17:08:24;;;;;;;1.07;0.87;;;9.40;99.90;;;;;;4977374;28;20546;-70
2022/02/08 17:10:52;;;;;;;0.50;0.50;;;9.40;99.90;;;;;;4977856;28;20222;-68
2022/02/08 17:18:59;;;;;;;0.95;0.73;;;9.40;99.90;;;;;;4977400;28;20234;-69
2022/02/08 17:46:14;;;;;;;0.90;0.90;;;9.10;99.90;;;;;;4958326;29;20531;-67
2022/02/08 17:48:40;;;;;;;1.10;1.10;;;9.10;99.90;;;;;;4957743;28;20321;-68
2022/02/08 17:51:06;;;;;;;3.03;1.63;;;9.10;99.90;;;;;;4956886;28;20659;-66
2022/02/08 17:53:31;;;;;;;3.47;3.17;;;9.00;99.90;;;;;;4974829;28;20176;-65
2022/02/08 17:55:57;;;;;;;2.17;1.97;;;9.00;99.90;;;;;;4957901;29;20248;-67
2022/02/08 17:58:23;;;;;;;2.53;2.27;;;9.00;99.90;;;;;;4957221;28;20655;-66
2022/02/08 18:00:51;;;;;;;2.43;2.33;;;9.00;99.90;;;;;;4957898;29;20217;-66
2022/02/08 18:03:17;;;;;;;2.92;2.20;;;8.90;99.90;;;;;;4957810;29;20635;-66
2022/02/08 18:05:44;;;;;;;2.93;1.70;;;8.90;99.90;;;;;;4956484;28;20292;-66
2022/02/08 18:08:14;;;;;;;1.27;1.17;;;8.90;99.90;;;;;;4956122;29;20424;-67
2022/02/08 18:10:43;;;;;;;1.30;1.20;;;8.90;99.90;;;;;;4957502;28;20168;-65
2022/02/08 18:13:13;;;;;;;1.95;1.85;;;8.80;99.90;;;;;;4957498;28;20521;-65
2022/02/08 18:15:40;;;;;;;4.32;2.17;;;8.80;99.90;;;;;;4957427;28;20199;-65
2022/02/08 18:18:17;;;;;;;1.00;0.90;;;8.80;99.90;;;;;;4957355;28;20527;-67
2022/02/08 18:20:48;;;;;;;2.63;1.60;;;8.80;99.90;;;;;;4963098;28;20199;-67
2022/02/08 19:17:10;;;;;;;1.00;1.00;;;9.00;99.90;;;;;;4975326;28;20195;-76
2022/02/08 19:20:02;;;;;;;1.92;1.52;;;9.00;99.90;;;;;;4974067;28;20243;-75
2022/02/08 19:22:23;;;;;;;1.38;1.25;;;9.00;99.90;;;;;;4975144;28;20211;-75
2022/02/08 19:24:49;;;;;;;3.20;1.38;;;9.00;99.90;;;;;;4975609;28;20219;-75
2022/02/08 19:27:17;;;;;;;1.33;1.03;;;9.00;99.90;;;;;;4974632;28;20180;-75
2022/02/08 19:29:43;;;;;;;0.80;0.80;;;8.90;99.90;;;;;;4968187;28;20394;-75
2022/02/08 19:32:10;;;;;;;4.93;1.10;;;8.90;99.90;;;;;;4958465;28;20177;-74
2022/02/08 19:34:38;;;;;;;1.23;1.13;;;8.90;99.90;;;;;;4966925;28;20554;-74
2022/02/08 19:37:06;;;;;;;2.75;1.27;;;8.80;99.90;;;;;;4974951;28;20657;-73
2022/02/08 19:39:38;;;;;;;3.13;2.53;;;8.80;99.90;;;;;;4974949;28;20203;-76
2022/02/08 19:42:05;;;;;;;1.10;1.10;;;8.70;99.90;;;;;;4973929;28;20176;-75
2022/02/08 19:44:30;;;;;;;1.60;1.50;;;8.70;99.90;;;;;;4969322;28;20208;-75
2022/02/08 19:46:58;;;;;;;2.13;1.80;;;8.60;99.90;;;;;;4966662;28;20184;-76
2022/02/08 19:49:24;;;;;;;1.23;1.23;;;8.50;99.90;;;;;;4963890;28;20230;-76
2022/02/08 19:51:52;;;;;;;2.60;1.10;;;8.50;99.90;;;;;;4973928;28;20172;-72
2022/02/08 19:54:23;;;;;;;1.05;1.05;;;8.40;99.90;;;;;;4972216;28;20177;-74
2022/02/08 19:56:58;;;;;;;2.55;1.33;;;8.40;99.90;;;;;;4962201;28;20180;-75
2022/02/08 19:59:37;;;;;;;2.42;1.02;;;8.30;99.90;;;;;;4964858;28;20188;-75
2022/02/08 20:02:08;;;;;;;4.20;1.33;;;8.30;99.90;;;;;;4964865;28;20191;-76
2022/02/08 20:04:34;;;;;;;4.40;1.40;;;8.30;99.90;;;;;;4965251;28;20255;-75
2022/02/08 20:07:01;;;;;;;3.03;1.60;;;8.30;99.90;;;;;;4964966;28;20256;-73
2022/02/08 20:09:27;;;;;;;2.35;1.42;;;8.20;99.90;;;;;;4963109;28;20554;-75
2022/02/08 20:11:54;;;;;;;2.05;1.65;;;8.20;99.90;;;;;;4964213;28;20176;-75
2022/02/08 20:14:21;;;;;;;2.17;1.77;;;8.20;99.90;;;;;;4956684;28;20177;-75
2022/02/08 20:16:47;;;;;;;3.38;1.25;;;8.20;99.90;;;;;;4963335;28;20176;-73
2022/02/08 20:19:15;;;;;;;2.50;2.10;;;8.20;99.90;;;;;;4962468;28;20282;-75
2022/02/08 20:21:41;;;;;;;2.22;1.38;;;8.20;99.90;;;;;;4963322;28;20420;-75
2022/02/08 20:24:11;;;;;;;2.80;2.50;;;8.10;99.90;;;;;;4964252;28;20207;-74
2022/02/08 20:29:24;;;;;;;1.85;1.40;;;8.10;99.90;;;;;;4961119;28;20249;-76
2022/02/08 20:31:51;;;;;;;2.08;1.88;;;8.10;99.90;;;;;;4966770;28;20172;-74
2022/02/08 20:34:19;;;;;;;3.92;1.77;;;8.10;99.90;;;;;;4965658;28;20396;-76
2022/02/08 20:36:45;;;;;;;1.50;1.35;;;8.00;99.90;;;;;;4966315;28;20206;-75
2022/02/08 20:39:12;;;;;;;2.38;1.25;;;8.00;99.90;;;;;;4960622;28;20204;-73
2022/02/08 20:41:39;;;;;;;2.67;1.35;;;8.00;99.90;;;;;;4962888;28;20228;-76
2022/02/08 20:44:08;;;;;;;5.70;1.50;;;8.00;99.90;;;;;;4962503;28;20287;-74
2022/02/08 20:46:34;;;;;;;1.67;1.35;;;7.90;99.90;;;;;;4961688;28;20263;-75
2022/02/08 20:48:59;;;;;;;4.20;1.80;;;7.90;99.90;;;;;;4962589;28;20289;-75
2022/02/08 20:51:28;;;;;;;1.60;1.50;;;7.80;99.90;;;;;;4964415;28;20702;-75
2022/02/08 20:53:58;;;;;;;1.85;1.75;;;7.90;99.90;;;;;;4963659;28;20182;-75
2022/02/08 20:56:29;;;;;;;2.40;2.25;;;7.90;99.90;;;;;;4967739;28;20182;-74
2022/02/08 21:01:30;;;;;;;2.10;1.90;;;7.90;99.90;;;;;;4973985;28;20180;-76
2022/02/08 21:04:01;;;;;;;2.40;1.65;;;7.80;99.90;;;;;;4973065;28;20219;-74
2022/02/08 21:06:34;;;;;;;2.33;1.90;;;7.90;99.90;;;;;;4974278;28;20172;-74
2022/02/08 21:09:01;;;;;;;3.15;2.03;;;7.90;99.90;;;;;;4973797;28;20688;-75
2022/02/08 21:11:35;;;;;;;3.42;1.80;;;7.90;99.90;;;;;;4974305;28;20278;-75
2022/02/08 21:14:06;;;;;;;2.13;1.60;;;7.90;99.90;;;;;;4974405;28;20190;-76
2022/02/08 21:16:48;;;;;;;2.47;2.38;;;7.90;99.90;;;;;;4972625;28;20184;-75
2022/02/08 21:19:18;;;;;;;7.03;2.30;;;7.90;99.90;;;;;;4971774;28;20206;-76
2022/02/08 21:21:45;;;;;;;2.60;2.20;;;7.90;99.90;;;;;;4974013;28;20196;-74
2022/02/08 21:24:12;;;;;;;1.75;1.63;;;7.90;99.90;;;;;;4974584;28;20199;-75
2022/02/08 21:26:43;;;;;;;2.35;2.20;;;7.90;99.90;;;;;;4973877;28;20180;-74